Terminal Aerodrome Forecast
Issued by NWS

Home | Current Version | Previous Version | Text Only | Print | Product List | Glossary Off
Versions: 1 2 3 4 5 6 7 8 9 10 11 12 13 14

000
FTUS43 KBIS 192320
TAFJMS
TAF
KJMS 192320Z 2000/2024 32012KT P6SM SCT060 BKN140
      TEMPO 2000/2001 35020G32KT 5SM -TSRA BKN050CB
     FM200200 32005KT P6SM SCT150
     FM201500 33009KT P6SM FEW250
     FM202300 02006KT P6SM SCT250=

USA.gov is the U.S. government's official web portal to all federal, state and local government web resources and services.